createdAt,value
2023-04-18T00:01:33.465Z,3.65
2023-04-18T00:04:02.045Z,3.71
2023-04-18T00:06:30.019Z,3.74
2023-04-18T00:08:56.740Z,4.00
2023-04-18T00:11:23.500Z,4.07
2023-04-18T00:13:50.425Z,4.10
2023-04-18T00:16:17.137Z,3.94
2023-04-18T00:18:43.905Z,4.01
2023-04-18T00:21:10.601Z,3.92
2023-04-18T00:23:37.355Z,4.13
2023-04-18T00:26:04.526Z,3.85
2023-04-18T00:28:31.226Z,3.87
2023-04-18T00:30:57.966Z,3.67
2023-04-18T00:33:24.713Z,3.72
2023-04-18T00:35:51.499Z,3.58
2023-04-18T00:38:18.206Z,3.61
2023-04-18T00:40:44.882Z,3.62
2023-04-18T00:43:15.023Z,3.77
2023-04-18T00:45:41.895Z,3.82
2023-04-18T00:48:09.594Z,3.65
2023-04-18T00:50:37.661Z,3.69
2023-04-18T00:53:04.774Z,3.64
2023-04-18T00:55:31.749Z,3.36
2023-04-18T00:57:58.700Z,3.59
2023-04-18T01:00:25.889Z,3.71
2023-04-18T01:02:54.097Z,3.61
2023-04-18T01:05:21.961Z,3.78
2023-04-18T01:07:49.190Z,3.63
2023-04-18T01:10:16.055Z,3.91
2023-04-18T01:12:42.687Z,4.03
2023-04-18T01:15:10.767Z,4.03
2023-04-18T01:17:38.603Z,4.13
2023-04-18T01:20:06.434Z,4.00
2023-04-18T01:22:34.182Z,3.67
2023-04-18T01:25:01.013Z,3.12
2023-04-18T01:27:27.804Z,2.93
2023-04-18T01:29:54.573Z,2.96
2023-04-18T01:32:22.661Z,3.34
2023-04-18T01:34:49.487Z,3.31
2023-04-18T01:37:16.145Z,3.38
2023-04-18T01:39:42.816Z,3.38
2023-04-18T01:42:09.548Z,3.42
2023-04-18T01:44:36.248Z,3.54
2023-04-18T01:47:03.103Z,3.44
2023-04-18T01:49:29.832Z,3.37
2023-04-18T01:51:56.541Z,3.29
2023-04-18T01:54:23.270Z,3.11
2023-04-18T01:56:49.915Z,2.98
2023-04-18T01:59:16.736Z,2.77
2023-04-18T02:01:43.475Z,2.87
2023-04-18T02:04:10.365Z,2.67
2023-04-18T02:06:37.234Z,2.81
2023-04-18T02:09:03.963Z,3.01
2023-04-18T02:11:30.712Z,2.90
2023-04-18T02:13:59.696Z,2.91
2023-04-18T02:16:26.536Z,2.85
2023-04-18T02:18:53.654Z,3.23
2023-04-18T02:21:22.107Z,3.35
2023-04-18T02:23:48.949Z,3.32
2023-04-18T02:26:16.190Z,3.09
2023-04-18T02:28:43.085Z,2.81
2023-04-18T02:31:14.915Z,2.89
2023-04-18T02:33:43.531Z,2.89
2023-04-18T02:36:12.068Z,3.07
2023-04-18T02:38:38.958Z,3.17
2023-04-18T02:41:05.731Z,3.16
2023-04-18T02:43:33.065Z,3.22
2023-04-18T02:45:59.791Z,3.10
2023-04-18T02:48:26.641Z,3.05
2023-04-18T02:50:53.411Z,2.66
2023-04-18T02:53:23.877Z,2.49
2023-04-18T02:55:50.690Z,2.49
2023-04-18T02:58:17.308Z,2.37
2023-04-18T03:00:44.045Z,2.54
2023-04-18T03:03:10.925Z,2.65
2023-04-18T03:05:39.552Z,2.55
2023-04-18T03:08:06.433Z,2.21
2023-04-18T03:10:33.128Z,2.38
2023-04-18T03:12:59.906Z,2.31
2023-04-18T03:15:26.840Z,2.34
2023-04-18T03:17:53.709Z,2.29
2023-04-18T03:20:20.746Z,2.32
2023-04-18T03:22:47.473Z,2.24
2023-04-18T03:25:14.311Z,2.31
2023-04-18T03:27:41.100Z,2.27
2023-04-18T03:30:08.514Z,2.37
2023-04-18T03:32:36.528Z,2.43
2023-04-18T03:35:03.443Z,2.43
2023-04-18T03:37:30.174Z,2.47
2023-04-18T03:39:57.342Z,2.50
2023-04-18T03:42:24.264Z,2.51
2023-04-18T03:44:50.949Z,2.47
2023-04-18T03:47:17.692Z,2.14
2023-04-18T03:49:44.365Z,2.23
2023-04-18T03:52:11.075Z,1.95
2023-04-18T03:54:37.772Z,2.08
2023-04-18T03:57:06.357Z,2.09
2023-04-18T03:59:33.074Z,2.22
2023-04-18T04:01:59.834Z,2.24
2023-04-18T04:04:27.324Z,2.39
2023-04-18T04:06:54.070Z,2.34
2023-04-18T04:09:20.862Z,2.44
2023-04-18T04:11:47.685Z,2.50
2023-04-18T04:14:14.532Z,2.53
2023-04-18T04:16:41.718Z,2.63
2023-04-18T04:19:08.519Z,2.66
2023-04-18T04:21:35.929Z,2.65
2023-04-18T04:24:03.111Z,2.80
2023-04-18T04:26:30.801Z,2.87
2023-04-18T04:28:57.771Z,2.90
2023-04-18T04:31:24.949Z,2.98
2023-04-18T04:33:51.658Z,3.23
2023-04-18T04:36:19.211Z,3.43
2023-04-18T04:38:46.165Z,3.57
2023-04-18T04:41:12.980Z,3.64
2023-04-18T04:43:41.371Z,3.56
2023-04-18T04:46:08.954Z,3.57
2023-04-18T04:48:35.701Z,3.58
2023-04-18T04:51:02.480Z,3.48
2023-04-18T04:53:32.675Z,3.59
2023-04-18T04:55:59.491Z,3.91
2023-04-18T04:58:26.724Z,4.09
2023-04-18T05:00:53.898Z,4.26
2023-04-18T05:03:21.197Z,4.35
2023-04-18T05:05:48.551Z,4.62
2023-04-18T05:08:15.520Z,4.73
2023-04-18T05:10:43.347Z,4.87
2023-04-18T05:13:10.159Z,5.24
2023-04-18T05:15:36.937Z,5.53
2023-04-18T05:18:03.960Z,5.77
2023-04-18T05:20:30.757Z,5.86
2023-04-18T05:22:57.508Z,6.01
2023-04-18T05:25:24.467Z,5.72
2023-04-18T05:27:51.184Z,6.19
2023-04-18T05:30:18.002Z,6.66
2023-04-18T05:32:44.757Z,6.61
2023-04-18T05:35:12.075Z,6.56
2023-04-18T05:37:39.664Z,6.42
2023-04-18T05:40:09.051Z,6.47
2023-04-18T05:42:35.831Z,6.82
2023-04-18T05:45:02.820Z,6.96
2023-04-18T05:47:30.530Z,6.93
2023-04-18T05:49:57.388Z,6.93
2023-04-18T05:52:26.130Z,7.17
2023-04-18T05:54:53.012Z,7.28
2023-04-18T05:57:19.754Z,7.34
2023-04-18T05:59:46.578Z,7.41
2023-04-18T06:02:13.814Z,7.73
2023-04-18T06:04:45.185Z,7.61
2023-04-18T06:07:12.353Z,7.29
2023-04-18T06:09:39.068Z,7.45
2023-04-18T06:12:06.076Z,7.62
2023-04-18T06:14:32.840Z,7.44
2023-04-18T06:16:59.716Z,7.49
2023-04-18T06:19:26.406Z,8.53
2023-04-18T06:21:53.384Z,9.19
2023-04-18T06:24:21.386Z,9.66
2023-04-18T06:26:48.082Z,9.45
2023-04-18T06:29:15.334Z,9.26
2023-04-18T06:31:42.320Z,8.70
2023-04-18T06:34:09.088Z,8.47
2023-04-18T06:36:36.363Z,8.21
2023-04-18T06:39:03.457Z,7.96
2023-04-18T06:41:30.106Z,8.09
2023-04-18T06:44:02.619Z,8.06
2023-04-18T06:46:30.939Z,8.16
2023-04-18T06:48:57.721Z,7.99
2023-04-18T06:51:24.534Z,7.95
2023-04-18T06:53:53.006Z,8.07
2023-04-18T06:56:23.154Z,8.20
2023-04-18T06:58:50.219Z,8.56
2023-04-18T07:01:17.001Z,8.62
2023-04-18T07:03:43.959Z,8.60
2023-04-18T07:06:11.087Z,8.65
2023-04-18T07:08:38.272Z,8.72
2023-04-18T07:11:06.110Z,8.83
2023-04-18T07:13:34.214Z,9.05
2023-04-18T07:16:01.599Z,9.18
2023-04-18T07:18:37.649Z,8.81
2023-04-18T07:21:07.853Z,8.61
2023-04-18T07:23:35.296Z,8.90
2023-04-18T07:26:03.109Z,8.38
2023-04-18T07:28:31.866Z,8.07
2023-04-18T07:30:59.356Z,8.59
2023-04-18T07:33:26.107Z,8.87
2023-04-18T07:35:53.232Z,9.01
2023-04-18T07:38:20.434Z,9.29
2023-04-18T07:40:47.304Z,9.25
2023-04-18T07:43:15.194Z,9.00
2023-04-18T07:45:43.458Z,8.79
2023-04-18T07:48:11.301Z,8.94
2023-04-18T07:50:38.311Z,9.19
2023-04-18T07:53:05.238Z,9.51
2023-04-18T07:55:32.001Z,9.67
2023-04-18T07:57:58.738Z,9.79
2023-04-18T08:00:25.645Z,9.90
2023-04-18T08:02:52.477Z,10.09
2023-04-18T08:05:20.298Z,9.87
2023-04-18T08:07:47.182Z,10.06
2023-04-18T08:10:13.885Z,9.92
2023-04-18T08:12:40.960Z,10.05
2023-04-18T08:15:08.590Z,10.02
2023-04-18T08:17:35.350Z,9.97
2023-04-18T08:20:05.118Z,9.78
2023-04-18T08:22:32.017Z,9.73
2023-04-18T08:25:04.868Z,9.69
2023-04-18T08:27:32.742Z,9.37
2023-04-18T08:30:00.353Z,9.28
2023-04-18T08:32:27.217Z,9.07
2023-04-18T08:34:53.942Z,9.26
2023-04-18T08:37:20.602Z,9.13
2023-04-18T08:39:47.287Z,9.06
2023-04-18T08:42:19.208Z,9.02
2023-04-18T08:44:47.282Z,8.99
2023-04-18T08:47:14.881Z,8.76
2023-04-18T08:49:46.761Z,8.58
2023-04-18T08:52:14.925Z,8.65
2023-04-18T08:54:43.020Z,8.40
2023-04-18T08:57:12.649Z,8.21
2023-04-18T08:59:40.140Z,8.15
2023-04-18T09:02:09.008Z,8.14
2023-04-18T09:04:49.267Z,8.19
2023-04-18T09:07:17.397Z,8.10
2023-04-18T09:09:45.536Z,8.05
2023-04-18T09:12:14.819Z,8.04
2023-04-18T09:14:50.233Z,8.18
2023-04-18T09:17:38.385Z,8.18
2023-04-18T09:20:06.485Z,8.00
2023-04-18T09:22:53.082Z,8.11
2023-04-18T09:25:34.984Z,8.13
2023-04-18T09:28:02.933Z,8.25
2023-04-18T09:30:32.099Z,8.24
2023-04-18T09:33:00.527Z,8.12
2023-04-18T09:35:28.374Z,8.25
2023-04-18T09:37:56.055Z,8.15
2023-04-18T09:40:24.122Z,8.11
2023-04-18T09:42:55.699Z,8.10
2023-04-18T09:45:24.122Z,8.17
2023-04-18T09:47:52.493Z,8.24
2023-04-18T09:50:20.984Z,8.27
2023-04-18T09:52:48.851Z,8.30
2023-04-18T09:55:18.720Z,8.18
2023-04-18T09:57:50.490Z,7.97
2023-04-18T10:00:24.374Z,7.91
2023-04-18T10:03:08.314Z,7.70
2023-04-18T10:05:39.956Z,7.62
2023-04-18T10:08:07.182Z,7.64
2023-04-18T10:10:34.141Z,7.96
2023-04-18T10:13:02.657Z,7.93
2023-04-18T10:15:30.973Z,8.06
2023-04-18T10:18:04.375Z,7.93
2023-04-18T10:20:33.635Z,7.90
2023-04-18T10:23:36.113Z,8.03
2023-04-18T10:26:09.098Z,7.95
2023-04-18T10:28:57.241Z,7.88
2023-04-18T10:31:28.777Z,7.98
2023-04-18T10:36:28.660Z,8.07
2023-04-18T10:39:21.312Z,8.24
2023-04-18T10:41:51.735Z,8.23
2023-04-18T10:44:25.015Z,8.00
2023-04-18T10:46:51.843Z,8.01
2023-04-18T10:49:26.299Z,7.94
2023-04-18T10:51:54.133Z,7.97
2023-04-18T10:54:32.199Z,7.84
2023-04-18T10:57:04.701Z,7.89
2023-04-18T10:59:33.397Z,7.73
2023-04-18T11:02:23.274Z,7.77
2023-04-18T11:04:51.851Z,7.89
2023-04-18T11:07:18.930Z,7.70
2023-04-18T11:09:55.311Z,7.41
2023-04-18T11:12:22.948Z,7.47
2023-04-18T11:14:54.495Z,7.57
2023-04-18T11:17:26.172Z,7.50
2023-04-18T11:20:17.096Z,7.31
2023-04-18T11:22:52.769Z,7.31
2023-04-18T11:25:23.712Z,7.31
2023-04-18T11:27:55.650Z,7.37
2023-04-18T11:30:22.514Z,7.38
2023-04-18T11:32:49.691Z,7.65
2023-04-18T11:35:16.546Z,8.00
2023-04-18T11:37:46.004Z,8.32
2023-04-18T11:40:14.389Z,8.56
2023-04-18T11:42:41.504Z,8.63
2023-04-18T11:45:11.685Z,8.63
2023-04-18T11:47:39.205Z,8.51
2023-04-18T11:50:07.821Z,8.54
2023-04-18T11:52:36.069Z,8.43
2023-04-18T11:55:15.106Z,8.61
2023-04-18T11:57:42.079Z,8.69
2023-04-18T12:00:12.317Z,8.66
2023-04-18T12:02:45.489Z,8.49
2023-04-18T12:05:15.067Z,8.49
2023-04-18T12:07:44.407Z,8.06
2023-04-18T12:10:20.542Z,7.76
2023-04-18T12:12:51.018Z,7.54
2023-04-18T12:15:18.680Z,7.51
2023-04-18T12:17:48.617Z,7.55
2023-04-18T12:20:16.119Z,7.76
2023-04-18T12:22:49.667Z,8.01
2023-04-18T12:25:27.384Z,8.16
2023-04-18T12:28:03.741Z,8.25
2023-04-18T12:30:33.361Z,8.31
2023-04-18T12:33:02.909Z,8.37
2023-04-18T12:35:31.201Z,8.23
2023-04-18T12:38:02.844Z,8.01
2023-04-18T12:40:30.179Z,8.07
2023-04-18T12:42:56.985Z,8.10
2023-04-18T12:45:24.465Z,8.05
2023-04-18T12:47:52.594Z,7.86
2023-04-18T12:50:21.854Z,7.63
2023-04-18T12:52:49.065Z,7.45
2023-04-18T12:55:15.873Z,7.39
2023-04-18T12:57:43.292Z,7.48
2023-04-18T13:00:11.500Z,7.33
2023-04-18T13:02:39.486Z,7.35
2023-04-18T13:05:11.149Z,7.28
2023-04-18T13:07:40.438Z,7.13
2023-04-18T13:10:12.039Z,7.13
2023-04-18T13:12:41.806Z,6.97
2023-04-18T13:15:10.096Z,6.81
2023-04-18T13:17:39.469Z,6.83
2023-04-18T13:20:10.703Z,7.03
2023-04-18T13:22:38.722Z,7.23
2023-04-18T13:25:07.282Z,7.45
2023-04-18T13:27:34.389Z,7.22
2023-04-18T13:30:02.592Z,7.43
2023-04-18T13:32:29.385Z,7.57
2023-04-18T13:34:56.561Z,7.61
2023-04-18T13:37:23.753Z,7.81
2023-04-18T13:39:50.669Z,7.89
2023-04-18T13:42:19.333Z,7.97
2023-04-18T13:44:47.150Z,8.16
2023-04-18T13:47:14.111Z,8.10
2023-04-18T13:49:41.169Z,8.14
2023-04-18T13:52:07.976Z,7.69
2023-04-18T13:54:37.045Z,7.85
2023-04-18T13:57:04.308Z,8.00
2023-04-18T13:59:31.913Z,7.84
2023-04-18T14:01:59.328Z,7.65
2023-04-18T14:04:27.040Z,7.73
2023-04-18T14:06:53.935Z,7.98
2023-04-18T14:09:20.884Z,7.89
2023-04-18T14:11:47.730Z,7.77
2023-04-18T14:14:14.983Z,7.39
2023-04-18T14:16:41.837Z,7.43
2023-04-18T14:19:09.101Z,7.42
2023-04-18T14:21:36.114Z,6.78
2023-04-18T14:24:03.882Z,7.07
2023-04-18T14:26:30.948Z,7.03
2023-04-18T14:28:57.653Z,7.06
2023-04-18T14:31:24.463Z,7.00
2023-04-18T14:33:51.219Z,6.80
2023-04-18T14:36:18.081Z,6.86
2023-04-18T14:38:49.143Z,7.12
2023-04-18T14:41:16.519Z,6.69
2023-04-18T14:43:43.265Z,6.72
2023-04-18T14:46:14.331Z,7.07
2023-04-18T14:48:41.081Z,7.15
2023-04-18T14:51:07.877Z,7.35
2023-04-18T14:53:35.022Z,7.53
2023-04-18T14:56:01.716Z,7.58
2023-04-18T14:58:28.350Z,7.66
2023-04-18T15:00:55.150Z,7.48
2023-04-18T15:03:22.002Z,7.42
2023-04-18T15:05:49.262Z,7.36
2023-04-18T15:08:16.369Z,7.35
2023-04-18T15:10:43.144Z,7.35
2023-04-18T15:13:11.169Z,7.34
2023-04-18T15:15:39.749Z,7.16
2023-04-18T15:18:08.553Z,7.24
2023-04-18T15:20:37.220Z,7.33
2023-04-18T15:23:03.993Z,7.35
2023-04-18T15:25:31.042Z,7.36
2023-04-18T15:27:58.547Z,7.24
2023-04-18T15:30:25.640Z,7.34
2023-04-18T15:32:54.044Z,7.07
2023-04-18T15:35:21.145Z,7.23
2023-04-18T15:37:49.047Z,7.03
2023-04-18T15:40:18.778Z,6.89
2023-04-18T15:42:46.123Z,6.65
2023-04-18T15:45:13.091Z,6.56
2023-04-18T15:47:40.790Z,6.51
2023-04-18T15:50:08.775Z,6.62
2023-04-18T15:52:36.373Z,6.44
2023-04-18T15:55:03.480Z,6.48
2023-04-18T15:57:30.279Z,6.27
2023-04-18T15:59:59.078Z,6.40
2023-04-18T16:02:26.574Z,6.28
2023-04-18T16:04:53.416Z,5.90
2023-04-18T16:07:20.222Z,6.20
2023-04-18T16:09:46.926Z,6.39
2023-04-18T16:12:13.914Z,6.56
2023-04-18T16:14:40.769Z,6.73
2023-04-18T16:17:07.434Z,6.69
2023-04-18T16:19:38.251Z,6.72
2023-04-18T16:22:07.418Z,6.85
2023-04-18T16:24:34.186Z,6.82
2023-04-18T16:27:01.066Z,6.88
2023-04-18T16:29:27.887Z,6.98
2023-04-18T16:31:55.219Z,6.91
2023-04-18T16:34:22.128Z,6.87
2023-04-18T16:36:51.045Z,6.83
2023-04-18T16:39:19.312Z,6.56
2023-04-18T16:41:46.081Z,6.18
2023-04-18T16:44:13.257Z,6.27
2023-04-18T16:46:40.228Z,6.61
2023-04-18T16:49:06.944Z,6.39
2023-04-18T16:51:36.424Z,6.40
2023-04-18T16:54:03.865Z,6.34
2023-04-18T16:56:30.883Z,6.16
2023-04-18T16:58:58.340Z,6.09
2023-04-18T17:01:25.049Z,6.09
2023-04-18T17:03:52.061Z,6.24
2023-04-18T17:06:19.704Z,6.11
2023-04-18T17:08:46.505Z,6.16
2023-04-18T17:11:13.230Z,6.22
2023-04-18T17:13:42.563Z,6.22
2023-04-18T17:16:09.270Z,6.18
2023-04-18T17:18:35.981Z,5.99
2023-04-18T17:21:03.340Z,6.05
2023-04-18T17:23:32.216Z,5.87
2023-04-18T17:25:59.595Z,5.83
2023-04-18T17:28:26.342Z,5.66
2023-04-18T17:30:53.074Z,5.83
2023-04-18T17:33:19.806Z,6.03
2023-04-18T17:35:47.187Z,6.11
2023-04-18T17:38:13.914Z,5.95
2023-04-18T17:40:40.745Z,5.95
2023-04-18T17:43:07.607Z,5.97
2023-04-18T17:45:34.329Z,5.98
2023-04-18T17:48:03.099Z,6.05
2023-04-18T17:50:30.162Z,5.85
2023-04-18T17:52:57.549Z,5.89
2023-04-18T17:55:26.200Z,5.89
2023-04-18T17:57:53.075Z,5.96
2023-04-18T18:00:19.881Z,5.85
2023-04-18T18:02:46.739Z,5.95
2023-04-18T18:05:13.760Z,5.99
2023-04-18T18:07:43.456Z,5.89
2023-04-18T18:10:11.236Z,5.77
2023-04-18T18:12:38.306Z,5.61
2023-04-18T18:15:05.761Z,5.56
2023-04-18T18:17:32.555Z,5.37
2023-04-18T18:19:59.334Z,5.54
2023-04-18T18:22:26.399Z,5.71
2023-04-18T18:24:53.248Z,5.72
2023-04-18T18:27:22.977Z,5.73
2023-04-18T18:29:50.661Z,5.64
2023-04-18T18:32:17.437Z,5.92
2023-04-18T18:34:44.288Z,6.03
2023-04-18T18:37:11.072Z,6.10
2023-04-18T18:39:37.790Z,6.17
2023-04-18T18:42:04.762Z,6.27
2023-04-18T18:44:32.468Z,6.27
2023-04-18T18:46:59.859Z,6.35
2023-04-18T18:49:27.011Z,6.38
2023-04-18T18:51:53.832Z,5.95
2023-04-18T18:54:20.546Z,5.96
2023-04-18T18:56:47.270Z,5.77
2023-04-18T18:59:15.758Z,5.90
2023-04-18T19:01:42.797Z,5.72
2023-04-18T19:04:10.147Z,5.97
2023-04-18T19:06:37.120Z,5.97
2023-04-18T19:09:05.318Z,5.85
2023-04-18T19:11:32.138Z,5.94
2023-04-18T19:13:58.872Z,5.89
2023-04-18T19:16:25.802Z,5.85
2023-04-18T19:18:52.675Z,5.68
2023-04-18T19:21:20.348Z,5.71
2023-04-18T19:23:47.064Z,5.79
2023-04-18T19:26:13.967Z,5.71
2023-04-18T19:28:41.440Z,5.48
2023-04-18T19:31:09.692Z,5.54
2023-04-18T19:33:36.554Z,5.74
2023-04-18T19:36:03.506Z,5.78
2023-04-18T19:38:30.297Z,5.93
2023-04-18T19:40:57.313Z,5.97
2023-04-18T19:43:23.955Z,5.94
2023-04-18T19:45:52.062Z,5.97
2023-04-18T19:48:19.894Z,6.06
2023-04-18T19:50:46.659Z,6.04
2023-04-18T19:53:13.336Z,5.95
2023-04-18T19:55:40.019Z,5.86
2023-04-18T19:58:06.899Z,5.85
2023-04-18T20:00:34.274Z,5.81
2023-04-18T20:03:01.254Z,5.79
2023-04-18T20:05:28.131Z,5.74
2023-04-18T20:07:54.764Z,5.83
2023-04-18T20:10:22.401Z,5.79
2023-04-18T20:12:50.143Z,5.86
2023-04-18T20:15:17.230Z,5.47
2023-04-18T20:17:44.004Z,5.64
2023-04-18T20:20:11.482Z,5.63
2023-04-18T20:22:40.390Z,5.78
2023-04-18T20:25:07.722Z,5.92
2023-04-18T20:27:34.441Z,6.05
2023-04-18T20:30:01.182Z,6.06
2023-04-18T20:32:28.141Z,6.04
2023-04-18T20:34:54.837Z,6.14
2023-04-18T20:37:21.642Z,5.86
2023-04-18T20:39:48.420Z,5.71
2023-04-18T20:42:15.497Z,5.61
2023-04-18T20:44:46.908Z,5.46
2023-04-18T20:47:15.793Z,5.74
2023-04-18T20:49:42.722Z,5.84
2023-04-18T20:52:14.549Z,5.92
2023-04-18T20:54:44.614Z,5.95
2023-04-18T20:57:11.366Z,6.08
2023-04-18T20:59:38.150Z,6.06
2023-04-18T21:02:07.006Z,6.14
2023-04-18T21:04:34.070Z,6.03
2023-04-18T21:07:01.032Z,5.97
2023-04-18T21:09:27.785Z,6.02
2023-04-18T21:11:58.491Z,6.09
2023-04-18T21:14:25.181Z,5.81
2023-04-18T21:16:51.862Z,5.92
2023-04-18T21:19:18.585Z,5.95
2023-04-18T21:21:45.306Z,5.96
2023-04-18T21:24:12.098Z,6.02
2023-04-18T21:26:38.897Z,6.00
2023-04-18T21:29:05.875Z,5.91
2023-04-18T21:31:34.086Z,5.98
2023-04-18T21:34:04.270Z,5.84
2023-04-18T21:36:31.933Z,5.77
2023-04-18T21:39:01.265Z,5.84
2023-04-18T21:41:28.955Z,5.72
2023-04-18T21:43:55.797Z,5.73
2023-04-18T21:46:22.595Z,5.69
2023-04-18T21:48:49.497Z,5.73
2023-04-18T21:51:17.122Z,5.76
2023-04-18T21:53:44.053Z,5.80
2023-04-18T21:56:11.140Z,5.75
2023-04-18T21:58:37.966Z,5.80
2023-04-18T22:01:04.723Z,5.59
2023-04-18T22:03:33.595Z,5.52
2023-04-18T22:06:01.549Z,5.46
2023-04-18T22:08:29.567Z,5.42
2023-04-18T22:10:59.052Z,5.36
2023-04-18T22:13:30.362Z,5.36
2023-04-18T22:15:58.449Z,5.37
2023-04-18T22:18:25.439Z,5.50
2023-04-18T22:20:53.690Z,5.51
2023-04-18T22:23:20.719Z,5.51
2023-04-18T22:25:47.859Z,5.58
2023-04-18T22:28:14.627Z,5.60
2023-04-18T22:30:41.539Z,5.66
2023-04-18T22:33:08.314Z,5.64
2023-04-18T22:35:35.081Z,5.61
2023-04-18T22:38:01.963Z,5.49
2023-04-18T22:40:28.820Z,5.52
2023-04-18T22:42:56.147Z,5.40
2023-04-18T22:45:22.868Z,5.43
2023-04-18T22:47:49.586Z,5.27
2023-04-18T22:50:16.358Z,5.33
2023-04-18T22:52:43.116Z,5.38
2023-04-18T22:55:10.036Z,5.45
2023-04-18T22:57:38.628Z,5.58
2023-04-18T23:00:06.657Z,5.45
2023-04-18T23:02:33.503Z,5.59
2023-04-18T23:05:02.462Z,5.50
2023-04-18T23:07:29.219Z,5.63
2023-04-18T23:09:56.112Z,5.63
2023-04-18T23:12:23.031Z,5.42
2023-04-18T23:14:49.788Z,5.25
2023-04-18T23:17:23.116Z,5.27
2023-04-18T23:19:49.757Z,5.49
2023-04-18T23:22:16.500Z,5.53
2023-04-18T23:24:43.219Z,5.55
2023-04-18T23:27:10.274Z,5.46
2023-04-18T23:29:40.729Z,5.38
2023-04-18T23:32:08.239Z,5.29
2023-04-18T23:34:34.933Z,5.48
2023-04-18T23:37:01.677Z,5.53
2023-04-18T23:39:28.565Z,5.52
2023-04-18T23:41:55.317Z,5.50
2023-04-18T23:44:22.367Z,5.49
2023-04-18T23:46:49.373Z,5.56
2023-04-18T23:49:16.335Z,5.46
2023-04-18T23:51:42.975Z,5.51
2023-04-18T23:54:09.802Z,5.48
2023-04-18T23:56:36.536Z,5.53
2023-04-18T23:59:03.221Z,5.58
